Tiempo atmosférico en la estación meteorológica de Almonte, Huelva (5 m.)



Fecha
DESCASC
Temp. máxima en grados centígrados (hora)
DESCASC
Temp. mínima en grados centígrados (hora)
DESCASC
Temp. media en grados centígrados
DESCASC
Racha de viento máxima en m/sg (hora)
DESCASC
Velocidad máxima media en intervalos de 10 minutos(hora)
DESCASC
Precipitaciones diarias en mm
DESCASC
Precipitaciones de 00:00 a 06:00 en mm
DESCASC
Precipitaciones de 06:00 a 12:00 en mm
DESCASC
Precipitaciones de 12:00 a 18:00 en mm
DESCASC
Precipitaciones de 18:00 a 24:00 en mm
DESCASC
23-06-2019 27.8 (16:50) 11.8 (07:00) 19.8 8.61 (14:10) 6.39 (15:00) 0 0 0 0 0
22-06-2019 27.7 (14:20) 11.9 (04:50) 19.8 9.44 (17:50) 7.5 (18:10) 0 0 0 0 0
21-06-2019 26.4 (15:20) 13.5 (07:10) 19.9 10.56 (18:10) 8.33 (18:10) 0 0 0 0 0
20-06-2019 25.5 (15:50) 14.7 (00:00) 20.1 11.94 (17:20) 8.89 (16:50) 0 0 0 0 0
19-06-2019 25.8 (16:40) 14.7 (00:00) 20.2 11.67 (18:00) 8.61 (18:00) 0 0 0 0 0
18-06-2019 25.1 (17:00) 13.1 (00:00) 19.1 9.72 (16:20) 6.94 (16:40) 0 0 0 0 0
17-06-2019 25.3 (12:30) 8.4 (00:00) 16.8 10.28 (18:50) 7.5 (18:40) 0 0 0 0 0
16-06-2019 26.7 (15:20) 9 (00:00) 17.9 9.72 (14:50) 7.5 (18:10) 0 0 0 0 0
15-06-2019 26.1 (16:20) 11.4 (00:00) 18.8 12.22 (19:00) 8.61 (18:50) 0 0 0 0 0
14-06-2019 22.6 (15:50) 10.4 (00:00) 16.5 13.33 (15:00) 9.44 (16:30) 0 0 0 0 0
13-06-2019 28.4 (16:40) 11.9 (00:00) 20.1 10.28 (18:20) 7.5 (18:20) 0 0 0 0 0
12-06-2019 27.6 (14:20) 7.3 (00:00) 17.5 10 (17:50) 7.78 (18:10) 0 0 0 0 0
11-06-2019 25.4 (15:00) 11.7 (00:00) 18.5 13.89 (18:00) 10.28 (17:40) 0 0 0 0 0
10-06-2019 25.2 (13:20) 10.9 (00:00) 18.1 13.33 (18:50) 10 (17:50) 0 0 0 0 0
09-06-2019 26.2 (14:20) 10.9 (00:00) 18.6 13.33 (18:10) 10 (17:40) 0 0 0 0 0
08-06-2019 28.5 (13:10) 11.5 (00:00) 20 9.17 (16:20) 6.67 (16:10) 0 0 0 0 0
07-06-2019 26.4 (15:20) 15.6 (00:00) 21 9.72 (15:50) 7.5 (18:10) 0 0 0 0 0
06-06-2019 23.9 (13:10) 10.6 (00:00) 17.3 11.94 (19:10) 8.89 (19:10) 0 0 0 0 0
05-06-2019 24.3 (14:40) 12.2 (00:00) 18.2 13.33 (14:20) 9.72 (16:00) 0 0 0 0 0
04-06-2019 26.8 (14:20) 14.9 (00:00) 20.8 12.5 (18:30) 9.44 (17:10) 0 0 0 0 0
03-06-2019 32.1 (15:20) 11 (00:00) 21.5 9.44 (19:10) 7.22 (17:50) 0 0 0 0 0
02-06-2019 33.3 (16:30) 10.9 (00:00) 22.1 8.89 (18:10) 6.67 (18:20) 0 0 0 0 0
01-06-2019 34.5 (16:20) 13.3 (00:00) 23.9 8.89 (15:30) 5.28 (16:30) 0 0 0 0 0
31-05-2019 34.8 (16:40) 12.8 (00:00) 23.8 8.06 (13:30) 5.83 (17:00) 0 0 0 0 0
30-05-2019 33.5 (17:00) 12 (00:00) 22.8 8.61 (23:10) 4.72 (09:50) 0 0 0 0 0
29-05-2019 33.9 (15:20) 11.6 (00:00) 22.8 8.61 (14:10) 6.39 (18:50) 0 0 0 0 0
28-05-2019 30.2 (12:20) 14.3 (00:00) 22.3 8.89 (15:50) 6.67 (15:30) 0 0 0 0 0
27-05-2019 30.1 (13:20) 10.4 (00:00) 20.3 9.72 (19:00) 6.67 (17:50) 0 0 0 0 0
26-05-2019 29.4 (14:40) 11.3 (00:00) 20.3 9.44 (15:20) 6.94 (18:30) 0 0 0 0 0

Gráficas

Temp. máximas Temp. mínimas Temp. medias Precipitaciones Rachas de viento máximas Velocidades máximas media en intervalos de 10 minutos

Datos horarios

Fecha y hora oficial Temperatura (ºC) Velocidad del viento (km/h) Dirección del viento Racha (km/h) Dirección de racha Precipitación (mm) Presión (hPa) Tendencia (hPa) Humedad (%)
2019-06-24 23:00:00 19.7 10 Oeste 18 Oeste 0 -- -- 87
2019-06-24 22:00:00 20.6 13 Oeste 25 Oeste 0 -- -- 83
2019-06-24 21:00:00 22.6 19 Oeste 28 Oeste 0 -- -- 74
2019-06-24 20:00:00 24 21 Sudoeste 32 Oeste 0 -- -- 69
2019-06-24 19:00:00 24.9 23 Sudoeste 34 Oeste 0 -- -- 67
2019-06-24 18:00:00 25.4 25 Oeste 34 Oeste 0 -- -- 68
2019-06-24 17:00:00 24.9 23 Sudoeste 34 Oeste 0 -- -- 70
2019-06-24 16:00:00 25 22 Sudoeste 35 Sudoeste 0 -- -- 68
2019-06-24 15:00:00 26 24 Sudoeste 33 Sudoeste 0 -- -- 65
2019-06-24 14:00:00 24.5 21 Oeste 31 Sudoeste 0 -- -- 71
2019-06-24 13:00:00 23.7 19 Sudoeste 28 Sudoeste 0 -- -- 74
2019-06-24 12:00:00 23.9 15 Sudoeste 22 Sudoeste 0 -- -- 72
2019-06-24 11:00:00 24 14 Sur 21 Sudoeste 0 -- -- 74
2019-06-24 10:00:00 22.4 11 Sudoeste 18 Sudoeste 0 -- -- 81
2019-06-24 09:00:00 20.3 13 Sur 21 Sudoeste 0 -- -- 91
2019-06-24 08:00:00 18.9 7 Sur 11 Sur 0 -- -- 96
2019-06-24 07:00:00 18.4 6 Sur 15 Sur 0 -- -- 94
2019-06-24 06:00:00 18.9 8 Sur 16 Sur 0 -- -- 96
2019-06-24 05:00:00 17.6 6 Sur 8 Sudoeste 0 -- -- 97
2019-06-24 04:00:00 15.1 4 Sur 9 Sur 0 -- -- 94
2019-06-24 03:00:00 16 6 Sur 8 Sur 0 -- -- 95
2019-06-24 02:00:00 16 7 Sudoeste 9 Sur 0 -- -- 92
2019-06-24 01:00:00 17.1 6 Sur 8 Sur 0 -- -- 92
2019-06-24 00:00:00 18 5 Sudoeste 9 Sudoeste 0 -- -- 89
2019-06-23 23:00:00 18.7 8 Oeste 17 Oeste 0 -- -- 84
2019-06-23 22:00:00 20.5 9 Oeste 23 Oeste 0 -- -- 78
2019-06-23 21:00:00 22.1 14 Oeste 31 Oeste 0 -- -- 63
2019-06-23 20:00:00 23 21 Oeste 31 Oeste 0 -- -- 60
2019-06-23 19:00:00 24.5 21 Oeste 29 Oeste 0 -- -- 62
2019-06-23 18:00:00 26.9 22 Sudoeste 30 Oeste 0 -- -- 55
2019-06-23 17:00:00 27.2 22 Oeste 31 Sudoeste 0 -- -- 55
2019-06-23 16:00:00 27 23 Sudoeste 31 Oeste 0 -- -- 55
2019-06-23 15:00:00 26.8 23 Sudoeste 31 Oeste 0 -- -- 57
2019-06-23 14:00:00 26.7 19 Sudoeste 28 Sudoeste 0 -- -- 58
2019-06-23 13:00:00 26.1 14 Sudoeste 26 Sudoeste 0 -- -- 60
2019-06-23 12:00:00 24.9 13 Sudoeste 24 Sudoeste 0 -- -- 64
2019-06-23 11:00:00 23.8 14 Oeste 22 Sudoeste 0 -- -- 68
2019-06-23 10:00:00 21.8 13 Sudoeste 22 Sudoeste 0 -- -- 76
2019-06-23 09:00:00 19.3 13 Sudoeste 21 Sudoeste 0 -- -- 96
2019-06-23 08:00:00 13.7 6 Sudeste 13 Sur 0 -- -- 96
2019-06-23 07:00:00 11.8 0 Calma 7 Nordeste 0 -- -- 92
2019-06-23 06:00:00 12.9 0 Calma 10 Oeste 0 -- -- 90
2019-06-23 05:00:00 15 3 Oeste 6 Oeste 0 -- -- 92
2019-06-23 04:00:00 15.3 3 Sudeste 11 Sudoeste 0 -- -- 90
2019-06-23 03:00:00 15.9 10 Oeste 13 Oeste 0 -- -- 92
2019-06-23 02:00:00 16.1 6 Sudoeste 12 Oeste 0 -- -- 88
2019-06-23 01:00:00 15.8 5 Sudoeste 6 Sur 0 -- -- 84
2019-06-23 00:00:00 16.8 5 Sur 8 Sur 0 -- -- 84
2019-06-22 23:00:00 17.8 5 Sudoeste 13 Sudoeste 0 -- -- 80
2019-06-22 22:00:00 19.6 9 Oeste 19 Oeste 0 -- -- 73
2019-06-22 21:00:00 22.2 15 Oeste 24 Oeste 0 -- -- 68
2019-06-22 20:00:00 24.5 19 Oeste 30 Sudoeste 0 -- -- 56
2019-06-22 19:00:00 26.1 22 Sudoeste 34 Sudoeste 0 -- -- 50
2019-06-22 18:00:00 25.9 27 Oeste 34 Sudoeste 0 -- -- 50
2019-06-22 17:00:00 27 25 Sudoeste 33 Sudoeste 0 -- -- 52
2019-06-22 16:00:00 26.9 24 Sudoeste 30 Sudoeste 0 -- -- 55
2019-06-22 15:00:00 27.3 20 Sudoeste 28 Sudoeste 0 -- -- 52
2019-06-22 14:00:00 27.3 17 Sudoeste 26 Sudoeste 0 -- -- 54
2019-06-22 13:00:00 26 15 Sudoeste 29 Sudoeste 0 -- -- 61
2019-06-22 12:00:00 25.1 15 Sudoeste 26 Sudoeste 0 -- -- 64
2019-06-22 11:00:00 24.2 12 Sudoeste 20 Sudoeste 0 -- -- 68
2019-06-22 10:00:00 21.5 13 Sudoeste 18 Sudoeste 0 -- -- 76
2019-06-22 09:00:00 16 4 Sudeste 10 Sudeste 0 -- -- 96
2019-06-22 08:00:00 12.4 2 Norte 5 Noroeste 0 -- -- 95
2019-06-22 07:00:00 12 0 Calma 6 Norte 0 -- -- 92
2019-06-22 06:00:00 12.6 4 Nordeste 12 Norte 0 -- -- 91
2019-06-22 05:00:00 12.1 7 Norte 12 Nordeste 0 -- -- 92
2019-06-22 04:00:00 13.5 5 Norte 9 Norte 0 -- -- 92
2019-06-22 03:00:00 14.8 0 Calma 4 Sudoeste 0 -- -- 87
2019-06-22 02:00:00 16.6 3 Sudoeste 9 Sudoeste 0 -- -- 89
2019-06-22 01:00:00 17.4 5 Sudoeste 13 Sudoeste 0 -- -- 86
2019-06-22 00:00:00 17.7 9 Sudoeste 14 Sur 0 -- -- 83
2019-06-21 23:00:00 18.2 5 Sudoeste 14 Sudeste 0 -- -- 77
2019-06-21 22:00:00 20.2 9 Sudoeste 26 Sudoeste 0 -- -- 68
2019-06-21 21:00:00 22.9 18 Oeste 33 Oeste 0 -- -- 57
2019-06-21 20:00:00 24 23 Oeste 35 Oeste 0 -- -- 52
2019-06-21 19:00:00 24.3 24 Oeste 38 Oeste 0 -- -- 52
2019-06-21 18:00:00 24.6 26 Oeste 37 Oeste 0 -- -- 53
2019-06-21 17:00:00 24.8 28 Sudoeste 37 Oeste 0 -- -- 55
2019-06-21 16:00:00 25.1 28 Oeste 36 Oeste 0 -- -- 53
2019-06-21 15:00:00 25.9 25 Sudoeste 32 Sudoeste 0 -- -- 47
2019-06-21 14:00:00 25.4 22 Sudoeste 28 Sudoeste 0 -- -- 47
2019-06-21 13:00:00 25.4 14 Sudoeste 23 Sudoeste 0 -- -- 48
2019-06-21 12:00:00 24.9 10 Sur 19 Sudoeste 0 -- -- 49
2019-06-21 11:00:00 22.1 3 Sudeste 14 Nordeste 0 -- -- 53
2019-06-21 10:00:00 19.3 7 Noroeste 19 Noroeste 0 -- -- 63
2019-06-21 09:00:00 16.8 12 Noroeste 23 Noroeste 0 -- -- 73
2019-06-21 08:00:00 14.1 8 Noroeste 13 Noroeste 0 -- -- 83
2019-06-21 07:00:00 13.6 6 Oeste 11 Oeste 0 -- -- 81
2019-06-21 06:00:00 14.8 4 Noroeste 12 Noroeste 0 -- -- 76
2019-06-21 05:00:00 16.4 6 Noroeste 16 Oeste 0 -- -- 71
2019-06-21 04:00:00 17.4 3 Norte 16 Noroeste 0 -- -- 68
2019-06-21 03:00:00 17.9 9 Noroeste 19 Noroeste 0 -- -- 68
2019-06-21 02:00:00 18.5 9 Noroeste 19 Noroeste 0 -- -- 65
2019-06-21 01:00:00 18.2 9 Noroeste 13 Oeste 0 -- -- 65
2019-06-21 00:00:00 17.7 9 Oeste 14 Sudoeste 0 -- -- 81
2019-06-20 23:00:00 18.8 12 Sudoeste 26 Oeste 0 -- -- 81
2019-06-20 22:00:00 19.5 19 Oeste 35 Oeste 0 -- -- 75
2019-06-20 21:00:00 21.5 25 Oeste 41 Oeste 0 -- -- 66
2019-06-20 20:00:00 23 28 Oeste 41 Oeste 0 -- -- 59
2019-06-20 19:00:00 23.8 29 Oeste 43 Sudoeste 0 -- -- 57
2019-06-20 18:00:00 24.2 29 Oeste 43 Oeste 0 -- -- 54
2019-06-20 17:00:00 23.9 30 Sudoeste 41 Sudoeste 0 -- -- 62
2019-06-20 16:00:00 25.3 26 Sudoeste 37 Sudoeste 0 -- -- 55
2019-06-20 15:00:00 25.2 25 Sudoeste 35 Sudoeste 0 -- -- 52
2019-06-20 14:00:00 24.2 25 Sudoeste 33 Sudoeste 0 -- -- 57
2019-06-20 13:00:00 23.7 24 Sudoeste 33 Sudoeste 0 -- -- 60
2019-06-20 12:00:00 23 20 Sudoeste 29 Sudoeste 0 -- -- 65
2019-06-20 11:00:00 21.7 20 Oeste 29 Sudoeste 0 -- -- 69
2019-06-20 10:00:00 20.7 18 Sudoeste 23 Sudoeste 0 -- -- 73
2019-06-20 09:00:00 18.8 15 Oeste 21 Oeste 0 -- -- 81
2019-06-20 08:00:00 16 10 Oeste 18 Oeste 0 -- -- 91
2019-06-20 07:00:00 14.8 11 Oeste 15 Oeste 0 -- -- 89
2019-06-20 06:00:00 15.8 10 Oeste 15 Oeste 0 -- -- 84
2019-06-20 05:00:00 15.6 9 Oeste 14 Oeste 0 -- -- 84
2019-06-20 04:00:00 16.6 9 Oeste 15 Oeste 0 -- -- 83
2019-06-20 03:00:00 17.5 10 Oeste 15 Oeste 0 -- -- 87
2019-06-20 02:00:00 18.2 12 Oeste 22 Oeste 0 -- -- 85
2019-06-20 01:00:00 18.8 17 Oeste 27 Oeste 0 -- -- 83
2019-06-20 00:00:00 18.9 18 Oeste 31 Oeste 0 -- -- 84
2019-06-19 23:00:00 19.2 21 Oeste 33 Sudoeste 0 -- -- 88
2019-06-19 22:00:00 19.7 21 Oeste 35 Sudoeste 0 -- -- 85
2019-06-19 21:00:00 21.1 25 Oeste 39 Oeste 0 -- -- 79
2019-06-19 20:00:00 22 28 Oeste 41 Sudoeste 0 -- -- 76
2019-06-19 19:00:00 23.3 29 Sudoeste 42 Sudoeste 0 -- -- 70
2019-06-19 18:00:00 24.4 31 Oeste 42 Oeste 0 -- -- 63
2019-06-19 17:00:00 25.6 28 Oeste 37 Sudoeste 0 -- -- 60
2019-06-19 16:00:00 25.4 27 Oeste 39 Sudoeste 0 -- -- 59
2019-06-19 15:00:00 25.2 27 Sudoeste 34 Sudoeste 0 -- -- 59
2019-06-19 14:00:00 25 24 Sudoeste 34 Oeste 0 -- -- 59
2019-06-19 13:00:00 25 22 Sudoeste 28 Oeste 0 -- -- 57
2019-06-19 12:00:00 24.5 17 Sudoeste 27 Sudoeste 0 -- -- 60
2019-06-19 11:00:00 22.6 8 Oeste 18 Oeste 0 -- -- 68
2019-06-19 10:00:00 19.9 6 Oeste 13 Noroeste 0 -- -- 80
2019-06-19 09:00:00 17 3 Oeste 8 Oeste 0 -- -- 97
2019-06-19 08:00:00 14.8 3 Sudeste 6 Sudeste 0 -- -- 95
2019-06-19 07:00:00 16.1 4 Noroeste 8 Noroeste 0 -- -- 95
2019-06-19 06:00:00 16.6 3 Noroeste 6 Oeste 0 -- -- 94
2019-06-19 05:00:00 17.5 2 Noroeste 13 Oeste 0 -- -- 94
2019-06-19 04:00:00 18.2 9 Oeste 17 Oeste 0 -- -- 94
2019-06-19 03:00:00 18.7 12 Oeste 20 Oeste 0 -- -- 94
2019-06-19 02:00:00 18.6 15 Oeste 23 Sudoeste 0 -- -- 95
2019-06-19 01:00:00 18.2 14 Sudoeste 24 Oeste 0 -- -- 94
2019-06-19 00:00:00 18.1 14 Sudoeste 19 Sudoeste 0 -- -- 92
2019-06-18 23:00:00 18.3 13 Sudoeste 17 Sudoeste 0 -- -- 89
2019-06-18 22:00:00 19.4 12 Sudoeste 23 Sudoeste 0 -- -- 84
2019-06-18 21:00:00 21.4 15 Sudoeste 28 Sudoeste 0 -- -- 74
2019-06-18 20:00:00 22.8 19 Sudoeste 30 Sudoeste 0 -- -- 68
2019-06-18 19:00:00 23.8 21 Sudoeste 31 Sudoeste 0 -- -- 64
2019-06-18 18:00:00 24.6 19 Sudoeste 31 Sudoeste 0 -- -- 61
2019-06-18 17:00:00 25.1 21 Sudoeste 35 Sudoeste 0 -- -- 58
2019-06-18 16:00:00 24.5 22 Sudoeste 33 Sudoeste 0 -- -- 59
2019-06-18 15:00:00 24.1 21 Sudoeste 29 Sudoeste 0 -- -- 59
2019-06-18 14:00:00 23.6 16 Sudoeste 25 Sudoeste 0 -- -- 57
2019-06-18 13:00:00 22.3 15 Sudoeste 26 Sudoeste 0 -- -- 61
2019-06-18 12:00:00 21.6 15 Sudoeste 33 Oeste 0 -- -- 61
2019-06-18 11:00:00 20.9 15 Sudoeste 24 Sudoeste 0 -- -- 62
2019-06-18 10:00:00 19.7 14 Sudoeste 27 Sudoeste 0 -- -- 69
2019-06-18 09:00:00 18.1 14 Sudoeste 21 Sudoeste 0 -- -- 76
2019-06-18 08:00:00 16.3 10 Sudoeste 16 Sudoeste 0 -- -- 89
2019-06-18 07:00:00 15.6 10 Sudoeste 15 Sudoeste 0 -- -- 94
2019-06-18 06:00:00 14.7 10 Sudoeste 16 Sudoeste 0 -- -- 94
2019-06-18 05:00:00 14 9 Sudoeste 13 Sudoeste 0 -- -- 94
2019-06-18 04:00:00 14 8 Sudoeste 12 Oeste 0 -- -- 93
2019-06-18 03:00:00 14 5 Oeste 11 Oeste 0 -- -- 94
2019-06-18 02:00:00 13.6 5 Oeste 12 Oeste 0 -- -- 94
2019-06-18 01:00:00 13.2 6 Oeste 10 Sudoeste 0 -- -- 92
2019-06-18 00:00:00 14.2 6 Sudoeste 8 Oeste 0 -- -- 87
2019-06-17 23:00:00 16 6 Oeste 17 Oeste 0 -- -- 85
2019-06-17 22:00:00 17.7 11 Oeste 26 Oeste 0 -- -- 81
2019-06-17 21:00:00 20.8 16 Oeste 27 Oeste 0 -- -- 64
2019-06-17 20:00:00 22.8 19 Oeste 32 Oeste 0 -- -- 51
2019-06-17 19:00:00 23 25 Oeste 37 Oeste 0 -- -- 53
2019-06-17 18:00:00 23.7 26 Oeste 35 Sudoeste 0 -- -- 54
2019-06-17 17:00:00 24.3 24 Oeste 33 Oeste 0 -- -- 55
2019-06-17 16:00:00 24.9 23 Oeste 33 Sudoeste 0 -- -- 54
2019-06-17 15:00:00 24.2 24 Sudoeste 36 Sudoeste 0 -- -- 60
2019-06-17 14:00:00 25 23 Sudoeste 33 Sudoeste 0 -- -- 58
2019-06-17 13:00:00 25.2 19 Sudoeste 27 Oeste 0 -- -- 57
2019-06-17 12:00:00 24.9 13 Sudoeste 21 Sur 0 -- -- 54
2019-06-17 11:00:00 22.8 9 Sur 16 Sudoeste 0 -- -- 61
2019-06-17 10:00:00 18.7 9 Sur 14 Sur 0 -- -- 82
2019-06-17 09:00:00 13.5 2 Este 6 Este 0 -- -- 98
2019-06-17 08:00:00 9.5 4 Nordeste 8 Nordeste 0 -- -- 97
2019-06-17 07:00:00 9 3 Este 8 Nordeste 0 -- -- 96
2019-06-17 06:00:00 8.5 4 Nordeste 7 Nordeste 0 -- -- 95
2019-06-17 05:00:00 8.6 4 Nordeste 6 Nordeste 0 -- -- 93
2019-06-17 04:00:00 9.4 0 Calma 3 Noroeste 0 -- -- 90
2019-06-17 03:00:00 10.7 0 Calma 5 Sudoeste 0 -- -- 90
2019-06-17 02:00:00 12.9 2 Sudoeste 6 Sur 0 -- -- 92
2019-06-17 01:00:00 13.6 3 Sur 10 Sudoeste 0 -- -- 92
2019-06-17 00:00:00 13.3 9 Sudoeste 10 Sudoeste 0 -- -- 87
2019-06-16 23:00:00 14.7 9 Sudoeste 11 Sudoeste 0 -- -- 79
2019-06-16 22:00:00 17.9 9 Sudoeste 19 Oeste 0 -- -- 72
2019-06-16 21:00:00 21.4 13 Oeste 26 Sudoeste 0 -- -- 59
2019-06-16 20:00:00 22.8 19 Oeste 32 Sudoeste 0 -- -- 59
2019-06-16 19:00:00 23.5 24 Oeste 34 Oeste 0 -- -- 56
2019-06-16 18:00:00 23.7 27 Oeste 35 Sudoeste 0 -- -- 52
2019-06-16 17:00:00 26.1 19 Sudoeste 32 Sudoeste 0 -- -- 43
2019-06-16 16:00:00 25.8 24 Sudoeste 33 Sudoeste 0 -- -- 47
2019-06-16 15:00:00 26.3 23 Sudoeste 35 Sudoeste 0 -- -- 43
2019-06-16 14:00:00 25.1 22 Sur 34 Sur 0 -- -- 51
2019-06-16 13:00:00 24 20 Sudoeste 28 Sudoeste 0 -- -- 62
2019-06-16 12:00:00 22.3 13 Sudoeste 18 Sudoeste 0 -- -- 69
2019-06-16 11:00:00 20.7 5 Sudeste 12 Sur 0 -- -- 72
2019-06-16 10:00:00 17.6 3 Sudeste 7 Nordeste 0 -- -- 75
2019-06-16 09:00:00 14.3 5 Nordeste 9 Nordeste 0 -- -- 86
2019-06-16 08:00:00 11.8 6 Nordeste 10 Nordeste 0 -- -- 91
2019-06-16 07:00:00 11.1 0 Calma 9 Nordeste 0 -- -- 91
2019-06-16 06:00:00 10.6 3 Norte 10 Nordeste 0 -- -- 94
2019-06-16 05:00:00 9.3 5 Noroeste 6 Oeste 0 -- -- 91
2019-06-16 04:00:00 9.8 3 Oeste 5 Oeste 0 -- -- 85
2019-06-16 03:00:00 11.9 3 Sudoeste 6 Sur 0 -- -- 88
2019-06-16 02:00:00 13.7 3 Sudeste 8 Oeste 0 -- -- 85
2019-06-16 01:00:00 14.4 8 Oeste 13 Oeste 0 -- -- 80
2019-06-16 00:00:00 16.5 9 Oeste 18 Oeste 0 -- -- 77
2019-06-15 23:00:00 17.7 14 Oeste 23 Oeste 0 -- -- 73
2019-06-15 22:00:00 18.4 17 Oeste 31 Oeste 0 -- -- 68
2019-06-15 21:00:00 19.5 22 Oeste 35 Oeste 0 -- -- 62
2019-06-15 20:00:00 20.9 26 Oeste 41 Oeste 0 -- -- 51
2019-06-15 19:00:00 22.2 29 Oeste 44 Oeste 0 -- -- 49
2019-06-15 18:00:00 23.5 29 Oeste 38 Oeste 0 -- -- 50
2019-06-15 17:00:00 25.8 24 Sudoeste 32 Sudoeste 0 -- -- 37
2019-06-15 16:00:00 25.5 24 Oeste 33 Sudoeste 0 -- -- 36
2019-06-15 15:00:00 25.9 23 Sudoeste 31 Sudoeste 0 -- -- 36
2019-06-15 14:00:00 25.1 21 Oeste 30 Sudoeste 0 -- -- 38
2019-06-15 13:00:00 24.4 4 Oeste 22 Norte 0 -- -- 36
2019-06-15 12:00:00 23.4 7 Nordeste 19 Nordeste 0 -- -- 41
2019-06-15 11:00:00 21.5 9 Nordeste 22 Nordeste 0 -- -- 48
2019-06-15 10:00:00 18.5 9 Nordeste 16 Nordeste 0 -- -- 56
2019-06-15 09:00:00 15.8 5 Norte 11 Norte 0 -- -- 66
2019-06-15 08:00:00 12 6 Noroeste 11 Norte 0 -- -- 81
2019-06-15 07:00:00 11.6 4 Noroeste 9 Noroeste 0 -- -- 79
2019-06-15 06:00:00 12.2 4 Norte 11 Noroeste 0 -- -- 75
2019-06-15 05:00:00 12.5 4 Noroeste 12 Oeste 0 -- -- 70
2019-06-15 04:00:00 13.2 5 Noroeste 13 Noroeste 0 -- -- 64
2019-06-15 03:00:00 13.9 6 Noroeste 14 Oeste 0 -- -- 62
2019-06-15 02:00:00 15.1 8 Noroeste 15 Oeste 0 -- -- 61
2019-06-15 01:00:00 16.5 9 Noroeste 21 Oeste 0 -- -- 64
2019-06-15 00:00:00 17.3 18 Oeste 32 Oeste 0 -- -- 76
2019-06-14 23:00:00 17.5 22 Oeste 35 Oeste 0 -- -- 70
2019-06-14 22:00:00 17.6 23 Oeste 36 Oeste 0 -- -- 64
2019-06-14 21:00:00 18.7 24 Oeste 42 Oeste 0 -- -- 61
2019-06-14 20:00:00 20.2 30 Oeste 45 Sudoeste 0 -- -- 54
2019-06-14 19:00:00 21.3 31 Sudoeste 41 Oeste 0 -- -- 50
2019-06-14 18:00:00 21.9 32 Sudoeste 44 Sudoeste 0 -- -- 46
2019-06-14 17:00:00 22 32 Sudoeste 45 Oeste 0 -- -- 47
2019-06-14 16:00:00 22.3 32 Sudoeste 44 Sudoeste 0 -- -- 43
2019-06-14 15:00:00 22.5 30 Sudoeste 48 Sudoeste 0 -- -- 42
2019-06-14 14:00:00 21.9 27 Sudoeste 37 Sudoeste 0 -- -- 48
2019-06-14 13:00:00 20.5 27 Sudoeste 39 Oeste 0 -- -- 51
2019-06-14 12:00:00 19.7 25 Oeste 35 Oeste 0 -- -- 56
2019-06-14 11:00:00 18.9 22 Oeste 31 Oeste 0 -- -- 57
2019-06-14 10:00:00 17.7 19 Oeste 27 Oeste 0 -- -- 61
2019-06-14 09:00:00 15.5 15 Oeste 30 Oeste 0 -- -- 65
2019-06-14 08:00:00 13.4 18 Oeste 26 Oeste 0 -- -- 72
2019-06-14 07:00:00 10.5 12 Oeste 17 Oeste 0 -- -- 77
2019-06-14 06:00:00 11.5 10 Oeste 15 Oeste 0 -- -- 72
2019-06-14 05:00:00 13 11 Oeste 16 Oeste 0 -- -- 68
2019-06-14 04:00:00 14.1 8 Oeste 11 Oeste 0 -- -- 65
2019-06-14 03:00:00 14.9 4 Oeste 11 Sur 0 -- -- 68
2019-06-14 02:00:00 16.4 4 Sur 15 Sudoeste 0 -- -- 75
2019-06-14 01:00:00 17.8 12 Sudoeste 20 Sudoeste 0 -- -- 78
2019-06-14 00:00:00 18 10 Sur 13 Sudoeste 0 -- -- 73
2019-06-13 23:00:00 17.7 9 Sudoeste 14 Oeste 0 -- -- 68
2019-06-13 22:00:00 19.2 12 Oeste 27 Oeste 0 -- -- 59
2019-06-13 21:00:00 21.4 21 Oeste 32 Oeste 0 -- -- 51
2019-06-13 20:00:00 22.7 21 Oeste 31 Sudoeste 0 -- -- 53
2019-06-13 19:00:00 24.6 23 Oeste 37 Oeste 0 -- -- 41
2019-06-13 18:00:00 25.8 24 Oeste 35 Oeste 0 -- -- 38
2019-06-13 17:00:00 25.7 24 Oeste 33 Sudoeste 0 -- -- 37
2019-06-13 16:00:00 27.7 21 Sudoeste 33 Noroeste 0 -- -- 35
2019-06-13 15:00:00 27.1 17 Sudoeste 29 Sudoeste 0 -- -- 41
2019-06-13 14:00:00 26.4 13 Oeste 24 Sudoeste 0 -- -- 40
2019-06-13 13:00:00 25.4 14 Sudoeste 28 Oeste 0 -- -- 41
2019-06-13 12:00:00 24.2 16 Sudoeste 24 Oeste 0 -- -- 43
2019-06-13 11:00:00 22 13 Sudoeste 21 Sudoeste 0 -- -- 41
2019-06-13 10:00:00 17.3 3 Este 6 Este 0 -- -- 55
2019-06-13 09:00:00 14.4 2 Sudoeste 11 Noroeste 0 -- -- 61
2019-06-13 08:00:00 11.9 4 Oeste 12 Noroeste 0 -- -- 68
2019-06-13 07:00:00 13.1 8 Oeste 19 Noroeste 0 -- -- 61
2019-06-13 06:00:00 15.1 10 Oeste 17 Noroeste 0 -- -- 55
2019-06-13 05:00:00 15.5 10 Noroeste 16 Noroeste 0 -- -- 54
2019-06-13 04:00:00 14.1 6 Oeste 12 Sudoeste 0 -- -- 82
2019-06-13 03:00:00 15.2 9 Sudoeste 15 Sudoeste 0 -- -- 85
2019-06-13 02:00:00 17.1 9 Sudoeste 17 Sudoeste 0 -- -- 88
2019-06-13 01:00:00 17.3 10 Sudoeste 18 Sudoeste 0 -- -- 88
2019-06-13 00:00:00 18.2 13 Sudoeste 19 Sudoeste 0 -- -- 90
2019-06-12 23:00:00 18.5 13 Oeste 22 Oeste 0 -- -- 87
2019-06-12 22:00:00 19.2 14 Oeste 30 Oeste 0 -- -- 84
2019-06-12 21:00:00 20.7 23 Oeste 34 Oeste 0 -- -- 78
2019-06-12 20:00:00 22.9 24 Oeste 35 Oeste 0 -- -- 67
2019-06-12 19:00:00 24.4 25 Oeste 36 Oeste 0 -- -- 59
2019-06-12 18:00:00 25.5 28 Oeste 36 Sudoeste 0 -- -- 55
2019-06-12 17:00:00 26.9 24 Oeste 33 Oeste 0 -- -- 50
2019-06-12 16:00:00 27 25 Sudoeste 33 Oeste 0 -- -- 50
2019-06-12 15:00:00 27.1 23 Sudoeste 32 Sudoeste 0 -- -- 51
2019-06-12 14:00:00 26.9 19 Oeste 27 Sudoeste 0 -- -- 52
2019-06-12 13:00:00 26.5 13 Sudoeste 26 Oeste 0 -- -- 53
2019-06-12 12:00:00 24.5 8 Sur 24 Sudoeste 0 -- -- 60
2019-06-12 11:00:00 23.6 4 Sur 20 Sur 0 -- -- 60
2019-06-12 10:00:00 20.1 11 Sur 17 Sur 0 -- -- 79
2019-06-12 09:00:00 14.7 0 Calma 3 Nordeste 0 -- -- 98
2019-06-12 08:00:00 9.3 0 Calma 5 Sudeste 0 -- -- 96
2019-06-12 07:00:00 7.8 3 Este 6 Este 0 -- -- 95
2019-06-12 06:00:00 7.8 0 Calma 2 Norte 0 -- -- 92
2019-06-12 05:00:00 9.1 0 Calma 5 Noroeste 0 -- -- 91
2019-06-12 04:00:00 10.2 0 Calma 4 Norte 0 -- -- 89
2019-06-12 03:00:00 12 2 Norte 4 Norte 0 -- -- 91
2019-06-12 02:00:00 13.3 3 Nordeste 5 Sudeste 0 -- -- 89
2019-06-12 01:00:00 15.2 0 Calma 8 Sur 0 -- -- 90
2019-06-12 00:00:00 15.6 2 Sudeste 9 Sur 0 -- -- 88
2019-06-11 23:00:00 16.6 6 Sur 12 Sudoeste 0 -- -- 80
2019-06-11 22:00:00 19 8 Sudoeste 20 Oeste 0 -- -- 78
2019-06-11 21:00:00 21.5 18 Oeste 37 Oeste 0 -- -- 67
2019-06-11 20:00:00 22.6 29 Oeste 46 Oeste 0 -- -- 61
2019-06-11 19:00:00 22.9 34 Oeste 49 Sudoeste 0 -- -- 59
2019-06-11 18:00:00 23.1 36 Oeste 50 Sudoeste 0 -- -- 57
2019-06-11 17:00:00 23.7 33 Oeste 47 Oeste 0 -- -- 54
2019-06-11 16:00:00 24.7 30 Sudoeste 42 Sudoeste 0 -- -- 50
2019-06-11 15:00:00 25.4 28 Sudoeste 37 Sudoeste 0 -- -- 42
2019-06-11 14:00:00 24.4 25 Oeste 37 Sudoeste 0 -- -- 48
2019-06-11 13:00:00 25 23 Oeste 34 Sudoeste 0 -- -- 42
2019-06-11 12:00:00 23.8 11 Sudoeste 27 Oeste 0 -- -- 42
2019-06-11 11:00:00 21.3 6 Noroeste 14 Oeste 0 -- -- 43
2019-06-11 10:00:00 18.7 7 Noroeste 27 Noroeste 0 -- -- 51
2019-06-11 09:00:00 16.1 13 Noroeste 29 Noroeste 0 -- -- 57
2019-06-11 08:00:00 13.2 7 Noroeste 16 Oeste 0 -- -- 68
2019-06-11 07:00:00 11.7 6 Noroeste 13 Oeste 0 -- -- 68
2019-06-11 06:00:00 12.4 3 Noroeste 7 Noroeste 0 -- -- 65
2019-06-11 05:00:00 14 4 Noroeste 10 Noroeste 0 -- -- 59
2019-06-11 04:00:00 15 5 Noroeste 8 Noroeste 0 -- -- 55
2019-06-11 03:00:00 16 4 Noroeste 10 Noroeste 0 -- -- 53
2019-06-11 02:00:00 15.9 4 Noroeste 10 Oeste 0 -- -- 60
2019-06-11 01:00:00 17 6 Noroeste 12 Sur 0 -- -- 71
2019-06-11 00:00:00 17.9 9 Sudoeste 17 Sudoeste 0 -- -- 83
2019-06-10 23:00:00 18.1 10 Sudoeste 22 Sudoeste 0 -- -- 78
2019-06-10 22:00:00 18.6 12 Sudoeste 28 Sudoeste 0 -- -- 71
2019-06-10 21:00:00 20.1 22 Sudoeste 40 Sudoeste 0 -- -- 64
2019-06-10 20:00:00 21 30 Sudoeste 45 Sudoeste 0 -- -- 60
2019-06-10 19:00:00 21.8 33 Sudoeste 48 Sudoeste 0 -- -- 60
2019-06-10 18:00:00 22.7 34 Sudoeste 46 Sudoeste 0 -- -- 57
2019-06-10 17:00:00 24 31 Sudoeste 42 Sudoeste 0 -- -- 52
2019-06-10 16:00:00 24.8 30 Sudoeste 41 Oeste 0 -- -- 51
2019-06-10 15:00:00 24.8 29 Sudoeste 40 Sudoeste 0 -- -- 46
2019-06-10 14:00:00 24.9 28 Sudoeste 39 Sudoeste 0 -- -- 47
2019-06-10 13:00:00 24.9 26 Sudoeste 38 Sudoeste 0 -- -- 46
2019-06-10 12:00:00 24.1 15 Oeste 26 Sudoeste 0 -- -- 48
2019-06-10 11:00:00 22 7 Oeste 20 Oeste 0 -- -- 49
2019-06-10 10:00:00 19.3 8 Noroeste 18 Noroeste 0 -- -- 58
2019-06-10 09:00:00 16.3 10 Noroeste 20 Noroeste 0 -- -- 76
2019-06-10 08:00:00 12.5 6 Oeste 13 Oeste 0 -- -- 93
2019-06-10 07:00:00 10.9 7 Oeste 9 Oeste 0 -- -- 89
2019-06-10 06:00:00 12.3 4 Sudoeste 8 Oeste 0 -- -- 85
2019-06-10 05:00:00 14.4 5 Oeste 13 Noroeste 0 -- -- 79
2019-06-10 04:00:00 15.3 7 Oeste 14 Noroeste 0 -- -- 76
2019-06-10 03:00:00 16.8 7 Oeste 18 Noroeste 0 -- -- 68
2019-06-10 02:00:00 18 9 Oeste 22 Oeste 0 -- -- 63
2019-06-10 01:00:00 19.3 11 Noroeste 28 Noroeste 0 -- -- 56
2019-06-10 00:00:00 20.3 15 Noroeste 28 Noroeste 0 -- -- 52
2019-06-09 23:00:00 19.4 11 Oeste 19 Oeste 0 -- -- 63
2019-06-09 22:00:00 19.5 15 Oeste 29 Oeste 0 -- -- 73
2019-06-09 21:00:00 20.9 21 Oeste 38 Sudoeste 0 -- -- 68
2019-06-09 20:00:00 22.2 26 Sudoeste 44 Sudoeste 0 -- -- 60
2019-06-09 19:00:00 22.5 32 Oeste 48 Oeste 0 -- -- 51
2019-06-09 18:00:00 22.7 35 Sudoeste 46 Sudoeste 0 -- -- 47
2019-06-09 17:00:00 24.3 31 Sudoeste 39 Oeste 0 -- -- 42
2019-06-09 16:00:00 25.1 28 Sudoeste 39 Oeste 0 -- -- 42
2019-06-09 15:00:00 25.7 27 Oeste 37 Oeste 0 -- -- 31
2019-06-09 14:00:00 25.8 23 Oeste 35 Sudoeste 0 -- -- 30
2019-06-09 13:00:00 24.8 23 Sudoeste 32 Oeste 0 -- -- 29
2019-06-09 12:00:00 23.9 17 Sudoeste 23 Sudoeste 0 -- -- 36
2019-06-09 11:00:00 22.3 14 Sudoeste 23 Oeste 0 -- -- 40
2019-06-09 10:00:00 19.3 7 Sudoeste 13 Oeste 0 -- -- 47
2019-06-09 09:00:00 15.3 7 Noroeste 15 Oeste 0 -- -- 55
2019-06-09 08:00:00 11.2 7 Oeste 12 Oeste 0 -- -- 71
2019-06-09 07:00:00 12.8 4 Oeste 11 Oeste 0 -- -- 64
2019-06-09 06:00:00 13.6 5 Oeste 12 Noroeste 0 -- -- 63
2019-06-09 05:00:00 15.2 5 Oeste 12 Noroeste 0 -- -- 62
2019-06-09 04:00:00 15.4 4 Oeste 7 Oeste 0 -- -- 76
2019-06-09 03:00:00 16.2 4 Sudoeste 6 Sur 0 -- -- 73
2019-06-09 02:00:00 17.1 3 Sur 12 Sudeste 0 -- -- 72
2019-06-09 01:00:00 18.1 8 Sudoeste 13 Oeste 0 -- -- 66
2019-06-09 00:00:00 19.2 7 Sudoeste 17 Oeste 0 -- -- 65
2019-06-08 23:00:00 19.8 11 Oeste 17 Oeste 0 -- -- 65
2019-06-08 22:00:00 20.5 13 Sudoeste 22 Oeste 0 -- -- 62
2019-06-08 21:00:00 22.2 16 Oeste 27 Oeste 0 -- -- 49
2019-06-08 20:00:00 23.5 19 Oeste 28 Oeste 0 -- -- 42
2019-06-08 19:00:00 25.9 21 Oeste 30 Sudoeste 0 -- -- 32
2019-06-08 18:00:00 28.3 19 Oeste 28 Sudoeste 0 -- -- 26
2019-06-08 17:00:00 28.2 21 Sudoeste 33 Oeste 0 -- -- 26
2019-06-08 16:00:00 27.8 22 Sudoeste 32 Oeste 0 -- -- 32
2019-06-08 15:00:00 27.5 23 Sudoeste 32 Sudoeste 0 -- -- 29
2019-06-08 14:00:00 28.1 17 Sudoeste 26 Oeste 0 -- -- 29
2019-06-08 13:00:00 28.2 10 Oeste 20 Sudoeste 0 -- -- 32
2019-06-08 12:00:00 26.4 7 Este 20 Nordeste 0 -- -- 25
2019-06-08 11:00:00 24.6 9 Este 19 Este 0 -- -- 28
2019-06-08 10:00:00 20.5 11 Nordeste 18 Nordeste 0 -- -- 40
2019-06-08 09:00:00 17.4 5 Norte 13 Norte 0 -- -- 46
2019-06-08 08:00:00 12.4 8 Noroeste 14 Noroeste 0 -- -- 59
2019-06-08 07:00:00 11.7 8 Noroeste 15 Norte 0 -- -- 59
2019-06-08 06:00:00 12.1 8 Noroeste 14 Noroeste 0 -- -- 57
2019-06-08 05:00:00 13.2 9 Noroeste 15 Norte 0 -- -- 52
2019-06-08 04:00:00 14.9 8 Norte 15 Norte 0 -- -- 47
2019-06-08 03:00:00 15.3 7 Noroeste 14 Norte 0 -- -- 46
2019-06-08 02:00:00 16 5 Noroeste 16 Noroeste 0 -- -- 44
2019-06-08 01:00:00 16.5 5 Norte 15 Noroeste 0 -- -- 44
2019-06-08 00:00:00 16.5 4 Noroeste 11 Noroeste 0 -- -- 50
2019-06-07 23:00:00 16.8 9 Sudoeste 16 Oeste 0 -- -- 73
2019-06-07 22:00:00 18.5 12 Sudoeste 24 Oeste 0 -- -- 68
2019-06-07 21:00:00 21 16 Oeste 28 Oeste 0 -- -- 57
2019-06-07 20:00:00 22.9 21 Oeste 30 Sudoeste 0 -- -- 49
2019-06-07 19:00:00 23.6 24 Oeste 34 Sudoeste 0 -- -- 50
2019-06-07 18:00:00 25.4 23 Oeste 33 Oeste 0 -- -- 41
2019-06-07 17:00:00 26.2 22 Oeste 33 Oeste 0 -- -- 35
2019-06-07 16:00:00 26 25 Sudoeste 35 Sudoeste 0 -- -- 36
2019-06-07 15:00:00 25.4 8 Nordeste 19 Norte 0 -- -- 27
2019-06-07 14:00:00 24 8 Noroeste 22 Nordeste 0 -- -- 29
2019-06-07 13:00:00 22.9 7 Nordeste 24 Nordeste 0 -- -- 33
2019-06-07 12:00:00 21.3 10 Nordeste 25 Nordeste 0 -- -- 37
2019-06-07 11:00:00 19.6 7 Norte 23 Noroeste 0 -- -- 47
2019-06-07 10:00:00 17.9 12 Norte 22 Noroeste 0 -- -- 51
2019-06-07 09:00:00 16.2 9 Norte 19 Noroeste 0 -- -- 68
2019-06-07 08:00:00 15.7 7 Noroeste 15 Noroeste 0 -- -- 68
2019-06-07 07:00:00 15.9 6 Noroeste 18 Noroeste 0 -- -- 70
2019-06-07 06:00:00 16.6 5 Noroeste 16 Noroeste 0 -- -- 74
2019-06-07 05:00:00 17.2 10 Noroeste 24 Oeste 0 -- -- 76
2019-06-07 04:00:00 18.1 16 Oeste 33 Oeste 0 -- -- 82
2019-06-07 03:00:00 17.6 15 Oeste 28 Oeste 0 -- -- 81
2019-06-07 02:00:00 17.5 17 Oeste 27 Noroeste 0 -- -- 78
2019-06-07 01:00:00 17.7 18 Oeste 32 Oeste 0 -- -- 79
2019-06-07 00:00:00 17.9 20 Oeste 34 Oeste 0 -- -- 77
2019-06-06 23:00:00 18.1 23 Oeste 39 Oeste 0 -- -- 72
2019-06-06 22:00:00 18.1 21 Oeste 38 Oeste 0 -- -- 70
2019-06-06 21:00:00 19.1 27 Oeste 41 Sudoeste 0 -- -- 67
2019-06-06 20:00:00 20.3 28 Oeste 43 Oeste 0 -- -- 62
2019-06-06 19:00:00 21.5 28 Oeste 42 Oeste 0 -- -- 55
2019-06-06 18:00:00 21.9 28 Oeste 41 Sudoeste 0 -- -- 52
2019-06-06 17:00:00 22.4 28 Oeste 41 Oeste 0 -- -- 40
2019-06-06 16:00:00 23.7 24 Sudoeste 34 Sudoeste 0 -- -- 29
2019-06-06 15:00:00 23.5 23 Sudoeste 34 Sudoeste 0 -- -- 30
2019-06-06 14:00:00 23.1 21 Sudoeste 33 Oeste 0 -- -- 32
2019-06-06 13:00:00 23.7 22 Sudoeste 28 Sudoeste 0 -- -- 34
2019-06-06 12:00:00 23.3 14 Sudoeste 21 Sudoeste 0 -- -- 36
2019-06-06 11:00:00 21.1 4 Sur 10 Nordeste 0 -- -- 38
2019-06-06 10:00:00 17.9 6 Nordeste 14 Nordeste 0 -- -- 47
2019-06-06 09:00:00 14.7 4 Noroeste 13 Noroeste 0 -- -- 58
2019-06-06 08:00:00 11.1 7 Noroeste 11 Oeste 0 -- -- 66
2019-06-06 07:00:00 11.1 5 Noroeste 9 Noroeste 0 -- -- 63
2019-06-06 06:00:00 11.5 5 Noroeste 9 Noroeste 0 -- -- 62
2019-06-06 05:00:00 12.8 0 Calma 9 Noroeste 0 -- -- 59
2019-06-06 04:00:00 14.7 5 Norte 17 Noroeste 0 -- -- 53
2019-06-06 03:00:00 15.9 8 Noroeste 21 Noroeste 0 -- -- 50
2019-06-06 02:00:00 16.6 10 Noroeste 23 Noroeste 0 -- -- 49
2019-06-06 01:00:00 16.9 11 Noroeste 21 Norte 0 -- -- 53
2019-06-06 00:00:00 16.7 9 Oeste 14 Oeste 0 -- -- 81
2019-06-05 23:00:00 17.7 10 Oeste 22 Oeste 0 -- -- 75
2019-06-05 22:00:00 18.7 14 Oeste 31 Oeste 0 -- -- 69
2019-06-05 21:00:00 20.3 23 Oeste 42 Oeste 0 -- -- 61
2019-06-05 20:00:00 21.3 30 Oeste 44 Oeste 0 -- -- 54
2019-06-05 19:00:00 22.2 29 Oeste 47 Sudoeste 0 -- -- 53
2019-06-05 18:00:00 22.5 32 Oeste 48 Sudoeste 0 -- -- 49
2019-06-05 17:00:00 23 31 Oeste 46 Sudoeste 0 -- -- 49
2019-06-05 16:00:00 23 35 Oeste 47 Oeste 0 -- -- 49
2019-06-05 15:00:00 24.1 33 Sudoeste 48 Sur 0 -- -- 39
2019-06-05 14:00:00 23.7 15 Oeste 41 Noroeste 0 -- -- 33
2019-06-05 13:00:00 23 13 Noroeste 32 Noroeste 0 -- -- 36
2019-06-05 12:00:00 20.8 12 Noroeste 27 Oeste 0 -- -- 45
2019-06-05 11:00:00 19.4 11 Noroeste 25 Noroeste 0 -- -- 52
2019-06-05 10:00:00 17.5 9 Noroeste 22 Noroeste 0 -- -- 61
2019-06-05 09:00:00 16 12 Noroeste 26 Noroeste 0 -- -- 69
2019-06-05 08:00:00 12.7 6 Noroeste 14 Noroeste 0 -- -- 80
2019-06-05 07:00:00 12.3 7 Oeste 16 Noroeste 0 -- -- 75
2019-06-05 06:00:00 13.5 8 Oeste 18 Noroeste 0 -- -- 70
2019-06-05 05:00:00 14.5 10 Noroeste 21 Noroeste 0 -- -- 63
2019-06-05 04:00:00 15.6 8 Noroeste 23 Noroeste 0 -- -- 59
2019-06-05 03:00:00 17 11 Noroeste 25 Oeste 0 -- -- 54
2019-06-05 02:00:00 18.2 13 Noroeste 31 Noroeste 0 -- -- 58
2019-06-05 01:00:00 20.5 19 Oeste 29 Oeste 0 -- -- 55
2019-06-05 00:00:00 21.7 10 Noroeste 22 Noroeste 0 -- -- 56
2019-06-04 23:00:00 21.7 9 Noroeste 17 Oeste 0 -- -- 58
2019-06-04 22:00:00 20.8 9 Noroeste 26 Sudoeste 0 -- -- 70
2019-06-04 21:00:00 21.3 23 Oeste 42 Oeste 0 -- -- 75
2019-06-04 20:00:00 23.2 26 Oeste 44 Oeste 0 -- -- 66
2019-06-04 19:00:00 23.7 28 Oeste 45 Sudoeste 0 -- -- 63
2019-06-04 18:00:00 23.8 31 Sudoeste 44 Oeste 0 -- -- 63
2019-06-04 17:00:00 24.2 33 Sudoeste 44 Sudoeste 0 -- -- 56
2019-06-04 16:00:00 24.7 33 Sudoeste 44 Sudoeste 0 -- -- 59
2019-06-04 15:00:00 26.1 28 Sudoeste 37 Oeste 0 -- -- 53
2019-06-04 14:00:00 26.6 24 Sudoeste 32 Sudoeste 0 -- -- 51
2019-06-04 13:00:00 26.4 22 Oeste 33 Sudoeste 0 -- -- 49
2019-06-04 12:00:00 25.9 21 Sudoeste 27 Sudoeste 0 -- -- 52
2019-06-04 11:00:00 24.4 10 Oeste 19 Noroeste 0 -- -- 54
2019-06-04 10:00:00 22.1 10 Noroeste 20 Oeste 0 -- -- 66
2019-06-04 09:00:00 18.9 10 Noroeste 17 Oeste 0 -- -- 79
2019-06-04 08:00:00 15.9 6 Oeste 13 Oeste 0 -- -- 91
2019-06-04 07:00:00 15.4 7 Oeste 13 Oeste 0 -- -- 90
2019-06-04 06:00:00 15.3 9 Oeste 13 Oeste 0 -- -- 89
2019-06-04 05:00:00 15 9 Oeste 14 Oeste 0 -- -- 84
2019-06-04 04:00:00 16.5 11 Oeste 17 Oeste 0 -- -- 72
2019-06-04 03:00:00 15.5 10 Oeste 13 Oeste 0 -- -- 70
2019-06-04 02:00:00 17.2 7 Sudoeste 9 Sudoeste 0 -- -- 86
2019-06-04 01:00:00 18.7 6 Sudoeste 12 Sudoeste 0 -- -- 79
2019-06-04 00:00:00 20.5 10 Sudoeste 18 Sudoeste 0 -- -- 70
2019-06-03 23:00:00 21 12 Sudoeste 17 Sudoeste 0 -- -- 61
2019-06-03 22:00:00 22.4 10 Sudoeste 20 Oeste 0 -- -- 49
2019-06-03 21:00:00 24.6 15 Oeste 30 Oeste 0 -- -- 49
2019-06-03 20:00:00 26.5 23 Oeste 34 Oeste 0 -- -- 39
2019-06-03 19:00:00 28.1 24 Oeste 33 Oeste 0 -- -- 30
2019-06-03 18:00:00 29 23 Oeste 33 Sudoeste 0 -- -- 34
2019-06-03 17:00:00 31.7 21 Oeste 30 Oeste 0 -- -- 26
2019-06-03 16:00:00 31.9 21 Oeste 28 Oeste 0 -- -- 24
2019-06-03 15:00:00 31.6 20 Sudoeste 28 Sudoeste 0 -- -- 26
2019-06-03 14:00:00 31.7 16 Sudoeste 25 Sudoeste 0 -- -- 27
2019-06-03 13:00:00 30.3 15 Oeste 22 Sudoeste 0 -- -- 30
2019-06-03 12:00:00 28.3 3 Norte 8 Nordeste 0 -- -- 30
2019-06-03 11:00:00 25.7 3 Nordeste 8 Este 0 -- -- 40
2019-06-03 10:00:00 21.9 4 Nordeste 8 Nordeste 0 -- -- 55
2019-06-03 09:00:00 17.2 4 Nordeste 6 Nordeste 0 -- -- 75
2019-06-03 08:00:00 12.6 0 Calma 8 Norte 0 -- -- 87
2019-06-03 07:00:00 11 4 Nordeste 8 Nordeste 0 -- -- 85
2019-06-03 06:00:00 11.8 5 Nordeste 12 Norte 0 -- -- 89
2019-06-03 05:00:00 11.7 4 Norte 9 Norte 0 -- -- 84
2019-06-03 04:00:00 13.2 3 Noroeste 8 Noroeste 0 -- -- 80
2019-06-03 03:00:00 14.5 0 Calma 6 Noroeste 0 -- -- 79
2019-06-03 02:00:00 17 4 Oeste 10 Oeste 0 -- -- 84
2019-06-03 01:00:00 17.7 9 Sudoeste 13 Oeste 0 -- -- 76
2019-06-03 00:00:00 19.5 10 Oeste 17 Oeste 0 -- -- 75
2019-06-02 23:00:00 20.4 13 Oeste 18 Oeste 0 -- -- 67
2019-06-02 22:00:00 21.3 11 Oeste 22 Oeste 0 -- -- 64
2019-06-02 21:00:00 24.5 15 Sudoeste 28 Sudoeste 0 -- -- 53
2019-06-02 20:00:00 26.6 21 Sudoeste 31 Oeste 0 -- -- 47
2019-06-02 19:00:00 28.3 23 Oeste 32 Sudoeste 0 -- -- 40
2019-06-02 18:00:00 30.6 22 Sudoeste 29 Sudoeste 0 -- -- 33
2019-06-02 17:00:00 32.8 19 Sudoeste 27 Sudoeste 0 -- -- 26
2019-06-02 16:00:00 32.9 19 Sudoeste 31 Sudoeste 0 -- -- 23
2019-06-02 15:00:00 33.2 13 Sudoeste 24 Sudoeste 0 -- -- 22
2019-06-02 14:00:00 32 8 Nordeste 21 Nordeste 0 -- -- 20
2019-06-02 13:00:00 30.8 8 Nordeste 21 Nordeste 0 -- -- 23
2019-06-02 12:00:00 29.3 8 Nordeste 16 Este 0 -- -- 27
2019-06-02 11:00:00 26.5 7 Nordeste 17 Nordeste 0 -- -- 35
2019-06-02 10:00:00 22.2 9 Nordeste 14 Nordeste 0 -- -- 45
2019-06-02 09:00:00 17.8 8 Nordeste 12 Nordeste 0 -- -- 65
2019-06-02 08:00:00 12.2 5 Nordeste 12 Nordeste 0 -- -- 79
2019-06-02 07:00:00 11.2 8 Nordeste 12 Nordeste 0 -- -- 77
2019-06-02 06:00:00 14.2 3 Norte 8 Norte 0 -- -- 67
2019-06-02 05:00:00 15.5 2 Norte 10 Norte 0 -- -- 62
2019-06-02 04:00:00 15.4 3 Norte 9 Este 0 -- -- 68
2019-06-02 03:00:00 17.8 4 Norte 14 Norte 0 -- -- 59
2019-06-02 02:00:00 17.2 7 Noroeste 13 Noroeste 0 -- -- 60
2019-06-02 01:00:00 16.4 4 Norte 5 Norte 0 -- -- 47
2019-06-02 00:00:00 19.4 3 Norte 6 Noroeste 0 -- -- 39
2019-06-01 23:00:00 21.6 0 Calma 14 Sur 0 -- -- 35
2019-06-01 22:00:00 25.1 5 Sur 15 Sur 0 -- -- 28
2019-06-01 21:00:00 30.5 13 Sur 22 Sudeste 0 -- -- 22
2019-06-01 20:00:00 33.1 10 Sudeste 22 Sudeste 0 -- -- 19
2019-06-01 19:00:00 34 12 Sudoeste 21 Sudoeste 0 -- -- 22
2019-06-01 18:00:00 33.6 15 Oeste 22 Sudoeste 0 -- -- 25
2019-06-01 17:00:00 34 16 Sudoeste 25 Sudoeste 0 -- -- 25
2019-06-01 16:00:00 33.9 17 Sudoeste 32 Nordeste 0 -- -- 26
2019-06-01 15:00:00 33.2 8 Este 24 Nordeste 0 -- -- 20
2019-06-01 14:00:00 31.5 10 Este 24 Este 0 -- -- 25
2019-06-01 13:00:00 29.6 11 Este 26 Nordeste 0 -- -- 27
2019-06-01 12:00:00 27.8 12 Nordeste 22 Nordeste 0 -- -- 32
2019-06-01 11:00:00 25.1 7 Nordeste 15 Este 0 -- -- 39
2019-06-01 10:00:00 21.6 7 Nordeste 17 Nordeste 0 -- -- 49
2019-06-01 09:00:00 18.3 8 Nordeste 13 Nordeste 0 -- -- 58
2019-06-01 08:00:00 15.4 4 Norte 9 Norte 0 -- -- 61
2019-06-01 07:00:00 13.4 3 Norte 9 Norte 0 -- -- 67
2019-06-01 06:00:00 15.7 7 Norte 10 Norte 0 -- -- 60
2019-06-01 05:00:00 15.1 2 Norte 8 Nordeste 0 -- -- 64
2019-06-01 04:00:00 16.3 4 Nordeste 13 Nordeste 0 -- -- 61
2019-06-01 03:00:00 17.6 2 Sudeste 10 Este 0 -- -- 57
2019-06-01 02:00:00 17.8 5 Este 9 Este 0 -- -- 56
2019-06-01 01:00:00 17.8 5 Este 11 Este 0 -- -- 51
2019-06-01 00:00:00 20.1 3 Sudeste 13 Sur 0 -- -- 42
2019-05-31 23:00:00 22.7 5 Sudeste 19 Sudeste 0 -- -- 34
2019-05-31 22:00:00 25.1 8 Sudeste 23 Sudeste 0 -- -- 30
2019-05-31 21:00:00 28.9 8 Sudeste 23 Sudeste 0 -- -- 26
2019-05-31 20:00:00 31.7 9 Sudeste 23 Sudeste 0 -- -- 24
2019-05-31 19:00:00 33.5 10 Sudeste 26 Sur 0 -- -- 23
2019-05-31 18:00:00 32.7 8 Sudoeste 27 Sudoeste 0 -- -- 28
2019-05-31 17:00:00 33.2 21 Sudoeste 29 Sudoeste 0 -- -- 29
2019-05-31 16:00:00 33.9 9 Este 24 Este 0 -- -- 22
2019-05-31 15:00:00 32.8 10 Este 22 Sudeste 0 -- -- 22
2019-05-31 14:00:00 31.7 9 Este 29 Sudeste 0 -- -- 26
2019-05-31 13:00:00 30 8 Este 26 Nordeste 0 -- -- 26
2019-05-31 12:00:00 27.9 11 Este 22 Este 0 -- -- 29
2019-05-31 11:00:00 25 12 Nordeste 23 Nordeste 0 -- -- 37
2019-05-31 10:00:00 21.7 14 Nordeste 22 Nordeste 0 -- -- 45
2019-05-31 09:00:00 18 10 Nordeste 15 Nordeste 0 -- -- 57
2019-05-31 08:00:00 14.2 4 Norte 8 Norte 0 -- -- 60
2019-05-31 07:00:00 13.7 3 Norte 7 Noroeste 0 -- -- 61
2019-05-31 06:00:00 13.7 3 Norte 6 Norte 0 -- -- 65
2019-05-31 05:00:00 14.5 0 Calma 13 Norte 0 -- -- 65
2019-05-31 04:00:00 15.1 6 Norte 14 Norte 0 -- -- 63
2019-05-31 03:00:00 15.4 7 Nordeste 22 Este 0 -- -- 53
2019-05-31 02:00:00 18.9 9 Este 18 Sudeste 0 -- -- 39
2019-05-31 01:00:00 20.3 10 Este 22 Sudeste 0 -- -- 36
2019-05-31 00:00:00 20.7 8 Este 31 Sudeste 0 -- -- 41
2019-05-30 23:00:00 21.7 8 Sudeste 20 Sudeste 0 -- -- 42
2019-05-30 22:00:00 23.5 10 Sur 21 Sudeste 0 -- -- 42
2019-05-30 21:00:00 27.5 6 Sudeste 26 Este 0 -- -- 35
2019-05-30 20:00:00 30.6 9 Sudeste 26 Este 0 -- -- 29
2019-05-30 19:00:00 32.2 12 Sudeste 25 Este 0 -- -- 28
2019-05-30 18:00:00 33.2 11 Sudeste 30 Este 0 -- -- 28
2019-05-30 17:00:00 33.5 8 Este 26 Sudeste 0 -- -- 28
2019-05-30 16:00:00 32.8 13 Nordeste 26 Nordeste 0 -- -- 28
2019-05-30 15:00:00 31.7 8 Este 24 Sudeste 0 -- -- 29
2019-05-30 14:00:00 30.3 10 Este 26 Nordeste 0 -- -- 30
2019-05-30 13:00:00 28.3 13 Nordeste 28 Este 0 -- -- 35
2019-05-30 12:00:00 26.4 15 Nordeste 30 Nordeste 0 -- -- 42
2019-05-30 11:00:00 24.6 17 Nordeste 30 Nordeste 0 -- -- 45
2019-05-30 10:00:00 21.9 16 Nordeste 24 Nordeste 0 -- -- 55
2019-05-30 09:00:00 17.8 12 Nordeste 18 Nordeste 0 -- -- 74
2019-05-30 08:00:00 13.9 7 Norte 14 Norte 0 -- -- 84
2019-05-30 07:00:00 13.2 3 Norte 6 Norte 0 -- -- 79
2019-05-30 06:00:00 12.2 3 Norte 8 Nordeste 0 -- -- 81
2019-05-30 05:00:00 13.9 6 Nordeste 10 Nordeste 0 -- -- 75
2019-05-30 04:00:00 13.9 3 Norte 7 Nordeste 0 -- -- 74
2019-05-30 03:00:00 13.7 2 Nordeste 4 Norte 0 -- -- 73
2019-05-30 02:00:00 14.9 0 Calma 10 Este 0 -- -- 68
2019-05-30 01:00:00 16 0 Calma 9 Sur 0 -- -- 69
2019-05-30 00:00:00 17.7 7 Sur 11 Sur 0 -- -- 59
2019-05-29 23:00:00 19.8 3 Oeste 10 Oeste 0 -- -- 66
2019-05-29 22:00:00 21.9 8 Oeste 21 Oeste 0 -- -- 65
2019-05-29 21:00:00 24.7 14 Oeste 24 Sudoeste 0 -- -- 57
2019-05-29 20:00:00 27.5 16 Sudoeste 27 Oeste 0 -- -- 47
2019-05-29 19:00:00 28.4 22 Sudoeste 30 Sudoeste 0 -- -- 44
2019-05-29 18:00:00 29.4 21 Oeste 28 Oeste 0 -- -- 42
2019-05-29 17:00:00 30.4 21 Oeste 30 Oeste 0 -- -- 40
2019-05-29 16:00:00 31.7 22 Sudoeste 28 Sudoeste 0 -- -- 35
2019-05-29 15:00:00 33 9 Este 31 Este 0 -- -- 32
2019-05-29 14:00:00 31.1 14 Nordeste 30 Este 0 -- -- 36
2019-05-29 13:00:00 29.3 12 Este 27 Nordeste 0 -- -- 39
2019-05-29 12:00:00 28 8 Este 21 Nordeste 0 -- -- 42
2019-05-29 11:00:00 25 11 Nordeste 24 Nordeste 0 -- -- 50
2019-05-29 10:00:00 22.5 12 Nordeste 26 Nordeste 0 -- -- 52
2019-05-29 09:00:00 18 6 Nordeste 13 Nordeste 0 -- -- 85
2019-05-29 08:00:00 14.4 0 Calma 11 Nordeste 0 -- -- 97
2019-05-29 07:00:00 14.1 9 Nordeste 12 Norte 0 -- -- 96
2019-05-29 06:00:00 11.8 2 Nordeste 5 Noroeste 0 -- -- 92
2019-05-29 05:00:00 12.4 0 Calma 4 Noroeste 0 -- -- 90
2019-05-29 04:00:00 13.4 0 Calma 7 Norte 0 -- -- 89
2019-05-29 03:00:00 15 0 Calma 4 Nordeste 0 -- -- 90
2019-05-29 02:00:00 15.3 2 Sur 5 Sudeste 0 -- -- 89
2019-05-29 01:00:00 16 2 Este 8 Nordeste 0 -- -- 88
2019-05-29 00:00:00 17.3 2 Sudeste 5 Sur 0 -- -- 87
2019-05-28 23:00:00 18.5 3 Este 8 Sudoeste 0 -- -- 84
2019-05-28 22:00:00 20.2 6 Sudoeste 16 Sudoeste 0 -- -- 79
2019-05-28 21:00:00 22.7 11 Sudoeste 26 Sudoeste 0 -- -- 68
2019-05-28 20:00:00 24.3 19 Sudoeste 30 Sudoeste 0 -- -- 60
2019-05-28 19:00:00 25.6 23 Sudoeste 31 Oeste 0 -- -- 51
2019-05-28 18:00:00 26.6 23 Sudoeste 30 Sudoeste 0 -- -- 49
2019-05-28 17:00:00 27.7 23 Sudoeste 32 Sudoeste 0 -- -- 47
2019-05-28 16:00:00 28.3 21 Sudoeste 32 Sudoeste 0 -- -- 44
2019-05-28 15:00:00 28.8 22 Sudoeste 28 Sudoeste 0 -- -- 42
2019-05-28 14:00:00 29.7 19 Sudoeste 26 Sudoeste 0 -- -- 43
2019-05-28 13:00:00 30 15 Sudoeste 23 Sudoeste 0 -- -- 43
2019-05-28 12:00:00 29.4 4 Este 13 Sur 0 -- -- 41
2019-05-28 11:00:00 26.7 5 Este 12 Este 0 -- -- 47
2019-05-28 10:00:00 22.4 6 Nordeste 14 Nordeste 0 -- -- 63
2019-05-28 09:00:00 18.6 4 Norte 9 Norte 0 -- -- 75
2019-05-28 08:00:00 14.7 3 Noroeste 10 Noroeste 0 -- -- 85
2019-05-28 07:00:00 14.9 4 Noroeste 11 Noroeste 0 -- -- 82
2019-05-28 06:00:00 15.8 8 Noroeste 15 Noroeste 0 -- -- 77
2019-05-28 05:00:00 16.6 8 Noroeste 13 Sudoeste 0 -- -- 72
2019-05-28 04:00:00 16.6 4 Sudoeste 8 Norte 0 -- -- 71
2019-05-28 03:00:00 19.4 4 Noroeste 9 Norte 0 -- -- 62
2019-05-28 02:00:00 18.5 3 Noroeste 9 Noroeste 0 -- -- 71
2019-05-28 01:00:00 18.8 6 Oeste 14 Sudoeste 0 -- -- 86
2019-05-28 00:00:00 19.7 12 Sudoeste 20 Oeste 0 -- -- 83
2019-05-27 23:00:00 20.1 15 Sudoeste 23 Sudoeste 0 -- -- 82
2019-05-27 22:00:00 21 17 Sudoeste 25 Oeste 0 -- -- 74
2019-05-27 21:00:00 22.8 18 Oeste 32 Sudoeste 0 -- -- 65
2019-05-27 20:00:00 24.8 24 Sudoeste 33 Oeste 0 -- -- 58
2019-05-27 19:00:00 24.6 24 Oeste 35 Oeste 0 -- -- 55
2019-05-27 18:00:00 27.2 24 Sudoeste 31 Sudoeste 0 -- -- 51
2019-05-27 17:00:00 29.3 23 Sudoeste 30 Sudoeste 0 -- -- 39
2019-05-27 16:00:00 29.5 22 Sudoeste 30 Oeste 0 -- -- 39
2019-05-27 15:00:00 29.9 19 Sudoeste 30 Oeste 0 -- -- 38
2019-05-27 14:00:00 29.6 16 Sudoeste 22 Sudoeste 0 -- -- 38
2019-05-27 13:00:00 29.5 10 Sudoeste 17 Sudoeste 0 -- -- 37
2019-05-27 12:00:00 27.8 4 Nordeste 17 Sur 0 -- -- 42
2019-05-27 11:00:00 24.4 3 Norte 8 Noroeste 0 -- -- 51
2019-05-27 10:00:00 20.2 3 Nordeste 7 Nordeste 0 -- -- 71
2019-05-27 09:00:00 15.8 4 Nordeste 7 Nordeste 0 -- -- 96
2019-05-27 08:00:00 12.8 2 Norte 8 Nordeste 0 -- -- 97
2019-05-27 07:00:00 10.4 2 Nordeste 6 Norte 0 -- -- 93
2019-05-27 06:00:00 11.4 4 Nordeste 8 Nordeste 0 -- -- 95
2019-05-27 05:00:00 10.8 3 Nordeste 4 Nordeste 0 -- -- 90
2019-05-27 04:00:00 11.5 0 Calma 5 Noroeste 0 -- -- 90
2019-05-27 03:00:00 12.4 0 Calma 6 Noroeste 0 -- -- 88
2019-05-27 02:00:00 13.6 0 Calma 3 Este 0 -- -- 86
2019-05-27 01:00:00 15 3 Nordeste 5 Este 0 -- -- 88
2019-05-27 00:00:00 16.7 0 Calma 9 Sur 0 -- -- 85
2019-05-26 23:00:00 17.9 5 Sudoeste 14 Sudoeste 0 -- -- 78
2019-05-26 22:00:00 19.6 11 Sudoeste 21 Oeste 0 -- -- 71
2019-05-26 21:00:00 22.3 15 Oeste 28 Oeste 0 -- -- 56
2019-05-26 20:00:00 24.7 23 Oeste 31 Oeste 0 -- -- 48
2019-05-26 19:00:00 26.1 23 Sudoeste 33 Oeste 0 -- -- 46
2019-05-26 18:00:00 27.7 23 Oeste 32 Sudoeste 0 -- -- 39
2019-05-26 17:00:00 28.9 22 Oeste 31 Sudoeste 0 -- -- 36
2019-05-26 16:00:00 28.7 23 Sudoeste 34 Sudoeste 0 -- -- 38
2019-05-26 15:00:00 29.2 22 Sudoeste 28 Sudoeste 0 -- -- 39
2019-05-26 14:00:00 28.6 15 Oeste 32 Sudoeste 0 -- -- 41
2019-05-26 13:00:00 27.5 5 Sudeste 12 Nordeste 0 -- -- 43
2019-05-26 12:00:00 25.3 4 Norte 13 Este 0 -- -- 48
2019-05-26 11:00:00 23 5 Este 12 Nordeste 0 -- -- 58
2019-05-26 10:00:00 19.5 6 Nordeste 13 Nordeste 0 -- -- 73
2019-05-26 09:00:00 15.5 3 Norte 9 Norte 0 -- -- 96
2019-05-26 08:00:00 12.6 3 Norte 7 Norte 0 -- -- 97
2019-05-26 07:00:00 11.8 3 Norte 6 Noroeste 0 -- -- 92
2019-05-26 06:00:00 12.7 2 Noroeste 5 Noroeste 0 -- -- 91
2019-05-26 05:00:00 13.2 3 Oeste 5 Sudoeste 0 -- -- 88
2019-05-26 04:00:00 14.4 4 Sudoeste 9 Sudoeste 0 -- -- 89
2019-05-26 03:00:00 15.4 4 Sur 8 Sudoeste 0 -- -- 91
2019-05-26 02:00:00 16 7 Sur 12 Sur 0 -- -- 90
2019-05-26 01:00:00 16.6 6 Sudoeste 10 Sudoeste 0 -- -- 85
2019-05-26 00:00:00 17.5 5 Sudoeste 15 Sur 0 -- -- 85